Angoon Information

FAA: AGN - ICAO: PAGN

Angoon (Seaplane Base) Location

State Alaska
County Angoon
City Angoon
Angoon (Seaplane Base) is 1 mile southeast of Angoon, AK.
Latitude 57-30-12.7990N
Longitude 134-35-06.3380W
Elevation 0ft

Angoon METARs

METAR PAGN 172056Z AUTO 14012G16KT 10SM BKN035 09/02 A2992 RMK AO2 SLP121 T00890022 58003
Altimeter 29.92"
Temperature 8.9°C (48.0°F)
Wind 140° at 12KT with gusts to 16KT
Clouds broken at 3,500ft
Visibility 10.0mi
Time observed: 2022-05-17T20:56:00Z

Angoon (Seaplane Base) Details

Status Operational
Activation December 1950
Ownership Public
Usage Public
Chart JUNEAU
ATC on-site No
Beacon schedule N/A
Beacon color N/A

Angoon (Seaplane Base) Contacts

Owner ALASKA DOT&PF SOUTHCOAST REGION
Owner address 6860 GLACIER HWY, JUNEAU, AK 99801-7999
Owner phone (907) 465-4512
Manager ALVIN WERNEKE
Manager address BOX 55, KOTZEBUE, AK 99752
Manager phone 907-442-3147

Angoon Radio Frequencies

Angoon (Seaplane Base) Radio Frequencies

UNICOM N/A
Common traffic advisory frequency (CTAF) 122.9